Terminal Aerodrome Forecast
Issued by NWS

Home | Current Version | Previous Version | Text Only | Print | Product List | Glossary On
Versions: 1 2 3 4 5 6 7 8 9 10 11 12 13 14 15 16 17 18 19
000
FTUS41 KBTV 051157 CCA
TAFSLK
TAF COR
KSLK 051157Z 0512/0612 31006KT 5SM BR VCSH SCT025 OVC040
      TEMPO 0512/0513 1SM -SHSN BKN023
     FM051300 31008KT P6SM SCT030 OVC050
      TEMPO 0513/0515 BKN025
     FM052000 30004KT P6SM FEW060 SCT150
     FM060000 00000KT P6SM SCT200=

USA.gov is the U.S. government's official web portal to all federal, state and local government web resources and services.